Great Gonerby, United Kingdom
Current Conditions -  °F | °C
As of 10:50 AM on Sunday 23 Nov 2014 (Local Time) from EGYD Reporting Station
Light Rain Light Rain  
Wind Chill: 41°   Ceiling: 5500
Heat Index: 45°   Visibility: 6mi
Dew Point: 43°   Wind: 6mph
Humidity: 93%   Direction: 330°NNW
Pressure: 30.03"   Gusts: NA
Location:  52.94°N, 0.67°W
Report Text: EGYD 231050Z 33005KT 9999 -RA SCT038 OVC055 07/06 Q1017 BLU NOSIG
Loading
Personal Weather Stations






























Interactive Weather Map New forecast layout! Learn more

10-Day Weather Forecast

Advertisements
Track Severe Weather on mobile